Time;durP1;ratioP1;P1;durP2;ratioP2;P2;SDS_P1;SDS_P2;PMS_P1;PMS_P2;Temp;Humidity;BMP_temperature;BMP_pressure;BME280_temperature;BME280_humidity;BME280_pressure;Samples;Min_cycle;Max_cycle;Signal;HPM_P1;HPM_P2
2024/02/23 00:02:17;;;;;;;0.00;0.00;;;;;;;;;;4975434;28;20214;-62
2024/02/23 00:04:44;;;;;;;0.00;0.00;;;;;;;;;;4975993;28;20225;-62
2024/02/23 00:07:11;;;;;;;0.00;0.00;;;;;;;;;;4978070;28;20226;-62
2024/02/23 00:09:39;;;;;;;0.00;0.00;;;;;;;;;;4975883;28;20210;-62
2024/02/23 00:12:08;;;;;;;0.00;0.00;;;;;;;;;;4975809;28;20297;-62
2024/02/23 00:14:37;;;;;;;0.00;0.00;;;;;;;;;;4975007;28;20626;-64
2024/02/23 00:17:04;;;;;;;0.00;0.00;;;;;;;;;;4975606;28;20206;-62
2024/02/23 00:19:31;;;;;;;0.00;0.00;;;;;;;;;;4974870;28;20198;-63
2024/02/23 00:22:00;;;;;;;0.00;0.00;;;;;;;;;;4975618;28;20207;-62
2024/02/23 00:24:27;;;;;;;0.00;0.00;;;;;;;;;;4974548;28;20312;-62
2024/02/23 00:26:54;;;;;;;0.00;0.00;;;;;;;;;;4975414;28;20285;-62
2024/02/23 00:29:22;;;;;;;0.00;0.00;;;;;;;;;;4975425;28;20638;-63
2024/02/23 00:31:50;;;;;;;0.00;0.00;;;;;;;;;;4975205;28;20727;-62
2024/02/23 00:34:17;;;;;;;0.20;0.00;;;;;;;;;;4973835;28;20737;-63
2024/02/23 00:36:45;;;;;;;0.00;0.00;;;;;;;;;;4982984;28;20250;-62
2024/02/23 00:39:12;;;;;;;0.00;0.00;;;;;;;;;;4996046;28;20214;-62
2024/02/23 00:41:39;;;;;;;0.00;0.00;;;;;;;;;;4996550;28;20205;-63
2024/02/23 00:44:07;;;;;;;0.97;0.00;;;;;;;;;;4995255;28;20317;-62
2024/02/23 00:46:34;;;;;;;0.00;0.00;;;;;;;;;;4984438;28;20878;-62
2024/02/23 00:49:03;;;;;;;0.00;0.00;;;;;;;;;;4973651;28;20246;-63
2024/02/23 00:51:30;;;;;;;0.00;0.00;;;;;;;;;;4973863;28;20204;-63
2024/02/23 00:53:57;;;;;;;0.00;0.00;;;8.10;99.90;;;;;;4974080;28;20234;-63
2024/02/23 00:56:25;;;;;;;0.00;0.00;;;8.20;99.90;;;;;;4975062;28;20257;-63
2024/02/23 00:58:52;;;;;;;1.30;0.00;;;8.20;99.90;;;;;;4980011;28;20210;-62
2024/02/23 01:01:19;;;;;;;0.00;0.00;;;8.30;99.90;;;;;;4975108;28;20199;-62
2024/02/23 01:03:46;;;;;;;0.00;0.00;;;8.20;99.90;;;;;;4971258;28;20205;-63
2024/02/23 01:06:14;;;;;;;0.00;0.00;;;;;;;;;;4974732;28;20757;-62
2024/02/23 01:08:41;;;;;;;0.00;0.00;;;8.20;99.90;;;;;;4972601;28;20210;-62
2024/02/23 01:11:08;;;;;;;0.00;0.00;;;8.20;99.90;;;;;;4971487;28;20205;-63
2024/02/23 01:13:35;;;;;;;0.00;0.00;;;8.10;99.90;;;;;;4973431;28;20287;-63
2024/02/23 01:16:02;;;;;;;0.00;0.00;;;8.00;99.90;;;;;;4974598;28;20662;-63
2024/02/23 01:18:29;;;;;;;0.20;0.00;;;8.00;99.90;;;;;;4971315;28;20272;-63
2024/02/23 01:20:57;;;;;;;0.00;0.00;;;8.10;99.90;;;;;;4973495;28;20276;-62
2024/02/23 01:23:25;;;;;;;0.33;0.00;;;8.10;99.90;;;;;;4974432;28;20208;-63
2024/02/23 01:25:53;;;;;;;0.00;0.00;;;8.10;99.90;;;;;;4973482;28;20226;-63
2024/02/23 01:28:20;;;;;;;1.07;0.00;;;8.20;99.90;;;;;;4992876;28;20219;-63
2024/02/23 01:30:47;;;;;;;0.00;0.00;;;8.10;99.90;;;;;;4993810;28;20209;-62
2024/02/23 01:33:14;;;;;;;0.00;0.00;;;8.20;99.90;;;;;;4992920;28;20673;-63
2024/02/23 01:35:41;;;;;;;0.00;0.00;;;;;;;;;;4992771;28;20242;-63
2024/02/23 01:38:08;;;;;;;0.00;0.00;;;;;;;;;;4990400;28;20201;-63
2024/02/23 01:40:37;;;;;;;0.00;0.00;;;;;;;;;;4972502;28;20259;-63
2024/02/23 01:43:05;;;;;;;0.60;0.00;;;8.10;99.90;;;;;;4973658;28;20241;-62
2024/02/23 01:45:32;;;;;;;0.00;0.00;;;8.10;99.90;;;;;;4973949;28;20253;-63
2024/02/23 01:48:00;;;;;;;0.00;0.00;;;8.10;99.90;;;;;;4974509;28;20714;-62
2024/02/23 01:50:27;;;;;;;0.20;0.00;;;8.10;99.90;;;;;;4974465;28;20210;-62
2024/02/23 01:52:56;;;;;;;0.10;0.10;;;8.20;99.90;;;;;;4974371;28;20265;-63
2024/02/23 01:55:24;;;;;;;0.00;0.00;;;8.30;99.90;;;;;;4973707;28;20227;-63
2024/02/23 01:57:53;;;;;;;0.00;0.00;;;8.20;99.90;;;;;;4974380;28;20675;-63
2024/02/23 02:00:20;;;;;;;1.07;0.00;;;8.10;99.90;;;;;;4984044;28;20218;-62
2024/02/23 02:02:49;;;;;;;0.00;0.00;;;8.10;99.90;;;;;;4993801;28;20213;-63
2024/02/23 02:05:16;;;;;;;0.00;0.00;;;8.00;99.90;;;;;;4992723;28;20295;-64
2024/02/23 02:07:44;;;;;;;0.87;0.00;;;8.10;99.90;;;;;;4993703;28;20270;-62
2024/02/23 02:10:11;;;;;;;0.00;0.00;;;8.00;99.90;;;;;;4993959;28;20587;-63
2024/02/23 02:12:38;;;;;;;0.00;0.00;;;8.00;99.90;;;;;;4993566;28;20637;-62
2024/02/23 02:15:08;;;;;;;0.30;0.00;;;8.00;99.90;;;;;;4992562;28;20729;-63
2024/02/23 02:17:36;;;;;;;0.00;0.00;;;7.90;99.90;;;;;;4992773;28;20210;-63
2024/02/23 02:20:05;;;;;;;0.00;0.00;;;7.90;99.90;;;;;;4993408;28;20209;-63
2024/02/23 02:22:34;;;;;;;0.00;0.00;;;7.80;99.90;;;;;;4993501;28;20210;-62
2024/02/23 02:25:01;;;;;;;0.00;0.00;;;7.90;99.90;;;;;;4992547;28;20226;-63
2024/02/23 02:27:31;;;;;;;2.43;0.00;;;7.80;99.90;;;;;;4964245;28;20286;-62
2024/02/23 02:29:58;;;;;;;0.30;0.00;;;7.80;99.90;;;;;;4954483;28;20262;-62
2024/02/23 02:32:26;;;;;;;0.00;0.00;;;7.80;99.90;;;;;;4986492;28;20621;-62
2024/02/23 02:34:53;;;;;;;0.00;0.00;;;7.80;99.90;;;;;;4992349;28;20296;-63
2024/02/23 02:37:20;;;;;;;0.00;0.00;;;7.70;99.90;;;;;;4993433;28;20271;-62
2024/02/23 02:39:47;;;;;;;0.30;0.00;;;7.80;99.90;;;;;;4988716;28;20278;-62
2024/02/23 02:42:14;;;;;;;1.80;0.00;;;7.80;99.90;;;;;;4993011;28;20206;-63
2024/02/23 02:44:40;;;;;;;0.00;0.00;;;8.00;99.90;;;;;;4991863;28;20705;-62
2024/02/23 02:47:07;;;;;;;0.00;0.00;;;8.00;99.90;;;;;;4992884;28;20220;-62
2024/02/23 02:49:36;;;;;;;0.00;0.00;;;7.80;99.90;;;;;;4993150;28;20212;-62
2024/02/23 02:52:03;;;;;;;0.00;0.00;;;7.30;99.90;;;;;;4993022;28;20258;-62
2024/02/23 02:54:30;;;;;;;0.10;0.10;;;7.00;99.90;;;;;;4991871;28;20279;-62
2024/02/23 02:56:57;;;;;;;0.00;0.00;;;6.70;99.90;;;;;;4992891;28;20246;-62
2024/02/23 02:59:24;;;;;;;0.00;0.00;;;6.40;99.90;;;;;;4991928;28;20197;-62
2024/02/23 03:01:51;;;;;;;0.00;0.00;;;6.20;99.90;;;;;;4992736;28;20881;-62
2024/02/23 03:04:18;;;;;;;0.00;0.00;;;6.10;99.90;;;;;;4991922;28;20230;-62
2024/02/23 03:06:46;;;;;;;0.57;0.00;;;5.90;99.90;;;;;;4992548;28;20205;-62
2024/02/23 03:09:13;;;;;;;0.00;0.00;;;5.90;99.90;;;;;;4990539;28;20269;-62
2024/02/23 03:11:40;;;;;;;0.00;0.00;;;5.80;99.90;;;;;;4992125;28;20209;-63
2024/02/23 03:14:08;;;;;;;0.00;0.00;;;5.80;99.90;;;;;;4981031;28;20223;-63
2024/02/23 03:16:36;;;;;;;0.57;0.00;;;5.60;99.90;;;;;;4973463;28;20948;-63
2024/02/23 03:19:03;;;;;;;0.00;0.00;;;5.60;99.90;;;;;;4973470;28;20286;-63
2024/02/23 03:21:30;;;;;;;0.03;0.00;;;5.60;99.90;;;;;;4973327;28;20205;-63
2024/02/23 03:23:58;;;;;;;0.00;0.00;;;5.40;99.90;;;;;;4972287;28;20284;-63
2024/02/23 03:26:25;;;;;;;0.43;0.10;;;5.50;99.90;;;;;;4973428;28;20270;-63
2024/02/23 03:28:52;;;;;;;0.10;0.00;;;5.60;99.90;;;;;;4985667;28;20222;-64
2024/02/23 03:31:19;;;;;;;0.00;0.00;;;5.50;99.90;;;;;;4996446;28;20203;-62
2024/02/23 03:33:46;;;;;;;0.03;0.00;;;5.50;99.90;;;;;;4991858;28;20205;-63
2024/02/23 03:36:13;;;;;;;0.00;0.00;;;5.50;99.90;;;;;;4992666;28;20747;-63
2024/02/23 03:38:40;;;;;;;0.00;0.00;;;5.50;99.90;;;;;;4992366;28;20630;-63
2024/02/23 03:41:08;;;;;;;0.10;0.10;;;5.50;99.90;;;;;;4992627;28;20210;-63
2024/02/23 03:43:35;;;;;;;2.23;0.17;;;5.60;99.90;;;;;;4975444;28;20263;-63
2024/02/23 03:46:02;;;;;;;1.20;0.00;;;5.60;99.90;;;;;;4974166;28;20207;-64
2024/02/23 03:48:29;;;;;;;0.00;0.00;;;5.70;99.90;;;;;;4977064;28;20325;-63
2024/02/23 03:50:56;;;;;;;0.00;0.00;;;5.60;99.90;;;;;;4972809;28;20206;-63
2024/02/23 03:53:23;;;;;;;0.07;0.07;;;5.70;99.90;;;;;;4972821;28;20202;-63
2024/02/23 03:55:50;;;;;;;0.00;0.00;;;5.70;99.90;;;;;;4972345;28;20229;-63
2024/02/23 03:58:18;;;;;;;0.10;0.00;;;5.70;99.90;;;;;;4984562;28;20197;-63
2024/02/23 04:00:45;;;;;;;0.10;0.07;;;5.60;99.90;;;;;;4992134;28;20263;-63
2024/02/23 04:03:12;;;;;;;0.00;0.00;;;5.40;99.90;;;;;;4992130;28;20201;-63
2024/02/23 04:05:39;;;;;;;0.00;0.00;;;5.50;99.90;;;;;;4991462;28;20226;-63
2024/02/23 04:08:07;;;;;;;0.30;0.07;;;5.50;99.90;;;;;;4992029;28;20229;-63
2024/02/23 04:10:34;;;;;;;2.57;0.00;;;5.50;99.90;;;;;;4985998;28;20673;-63
2024/02/23 04:13:01;;;;;;;0.10;0.10;;;5.30;99.90;;;;;;4972651;28;20681;-63
2024/02/23 04:15:29;;;;;;;0.00;0.00;;;5.40;99.90;;;;;;4971869;28;20303;-63
2024/02/23 04:17:57;;;;;;;0.00;0.00;;;5.40;99.90;;;;;;4972929;28;20204;-64
2024/02/23 04:20:24;;;;;;;0.00;0.00;;;;;;;;;;4972657;28;20206;-63
2024/02/23 04:22:51;;;;;;;1.23;0.00;;;5.40;99.90;;;;;;4972881;28;20257;-63
2024/02/23 04:25:18;;;;;;;1.03;0.10;;;5.30;99.90;;;;;;4981048;28;20278;-63
2024/02/23 04:27:45;;;;;;;0.07;0.07;;;5.30;99.90;;;;;;4975481;28;20223;-63
2024/02/23 04:30:13;;;;;;;0.10;0.10;;;5.30;99.90;;;;;;4976219;28;20265;-63
2024/02/23 04:32:42;;;;;;;0.00;0.00;;;5.40;99.90;;;;;;4975956;28;20211;-63
2024/02/23 04:35:09;;;;;;;0.10;0.10;;;5.40;99.90;;;;;;4974886;28;20777;-64
2024/02/23 04:37:36;;;;;;;0.00;0.00;;;5.50;99.90;;;;;;4975687;28;20207;-63
2024/02/23 04:40:05;;;;;;;0.50;0.10;;;5.40;99.90;;;;;;4975688;28;20203;-63
2024/02/23 04:42:32;;;;;;;0.00;0.00;;;5.40;99.90;;;;;;4977925;28;20229;-64
2024/02/23 04:44:59;;;;;;;1.93;0.10;;;5.40;99.90;;;;;;4978193;28;20278;-63
2024/02/23 04:47:26;;;;;;;0.80;0.10;;;5.30;99.90;;;;;;4975670;28;20213;-63
2024/02/23 04:49:54;;;;;;;0.30;0.30;;;;;;;;;;4975487;28;20254;-64
2024/02/23 04:52:21;;;;;;;0.40;0.40;;;5.40;99.90;;;;;;4975495;28;20212;-63
2024/02/23 04:54:48;;;;;;;0.97;0.20;;;5.40;99.90;;;;;;4974455;28;20222;-63
2024/02/23 04:57:15;;;;;;;0.30;0.30;;;5.40;99.90;;;;;;4975408;28;20256;-64
2024/02/23 04:59:42;;;;;;;0.40;0.20;;;5.50;99.90;;;;;;4975604;28;20208;-63
2024/02/23 05:02:09;;;;;;;0.20;0.10;;;5.60;99.90;;;;;;4974235;28;20202;-64
2024/02/23 05:04:36;;;;;;;0.10;0.10;;;5.50;99.90;;;;;;4974358;28;20237;-63
2024/02/23 05:07:05;;;;;;;0.10;0.10;;;5.50;99.90;;;;;;4975459;28;20211;-63
2024/02/23 05:09:32;;;;;;;1.63;0.37;;;5.50;99.90;;;;;;4975087;28;20273;-63
2024/02/23 05:11:59;;;;;;;3.30;1.57;;;5.60;99.90;;;;;;4975263;28;20205;-63
2024/02/23 05:14:27;;;;;;;0.80;0.60;;;5.70;99.90;;;;;;4972148;28;20641;-63
2024/02/23 05:16:53;;;;;;;1.03;0.90;;;5.70;99.90;;;;;;4975295;28;20258;-64
2024/02/23 05:19:20;;;;;;;0.70;0.70;;;5.60;99.90;;;;;;4973010;28;20263;-63
2024/02/23 05:21:47;;;;;;;0.30;0.27;;;5.70;99.90;;;;;;4975115;28;20202;-64
2024/02/23 05:24:16;;;;;;;0.40;0.30;;;5.60;99.90;;;;;;4974248;28;20286;-63
2024/02/23 05:26:44;;;;;;;1.23;0.20;;;5.60;99.90;;;;;;4975065;28;20638;-63
2024/02/23 05:29:12;;;;;;;0.20;0.20;;;5.60;99.90;;;;;;4975166;28;20232;-63
2024/02/23 05:31:47;;;;;;;0.67;0.30;;;5.50;99.90;;;;;;4974880;28;20208;-63
2024/02/23 05:34:14;;;;;;;0.53;0.40;;;5.60;99.90;;;;;;4973379;28;20233;-63
2024/02/23 05:36:41;;;;;;;0.53;0.40;;;5.60;99.90;;;;;;4974781;28;20205;-63
2024/02/23 05:39:09;;;;;;;0.20;0.20;;;5.50;99.90;;;;;;4974658;28;20204;-63
2024/02/23 05:41:37;;;;;;;0.50;0.50;;;5.50;99.90;;;;;;4974678;28;20633;-63
2024/02/23 05:44:05;;;;;;;0.57;0.23;;;5.50;99.90;;;;;;4973597;28;20715;-64
2024/02/23 05:46:33;;;;;;;1.80;0.40;;;5.60;99.90;;;;;;4974821;28;20674;-63
2024/02/23 05:49:02;;;;;;;1.60;0.70;;;5.40;99.90;;;;;;4974580;28;20230;-63
2024/02/23 05:51:30;;;;;;;1.90;0.57;;;5.60;99.90;;;;;;4974358;28;20235;-63
2024/02/23 05:53:57;;;;;;;0.40;0.40;;;5.50;99.90;;;;;;4973586;28;20228;-63
2024/02/23 05:56:24;;;;;;;2.20;0.37;;;5.50;99.90;;;;;;4974373;28;20674;-64
2024/02/23 05:58:53;;;;;;;1.13;0.37;;;5.50;99.90;;;;;;4974294;28;20782;-63
2024/02/23 06:01:20;;;;;;;0.40;0.40;;;5.50;99.90;;;;;;4974241;28;20260;-63
2024/02/23 06:03:47;;;;;;;1.50;0.70;;;5.50;99.90;;;;;;4973320;28;20292;-63
2024/02/23 06:06:14;;;;;;;2.13;0.40;;;5.50;99.90;;;;;;4974409;28;20209;-63
2024/02/23 06:08:41;;;;;;;1.40;0.47;;;5.60;99.90;;;;;;4974087;28;20222;-63
2024/02/23 06:11:11;;;;;;;0.57;0.20;;;5.50;99.90;;;;;;4974139;28;20260;-64
2024/02/23 06:13:38;;;;;;;1.03;0.93;;;5.40;99.90;;;;;;4973215;28;20267;-63
2024/02/23 06:16:10;;;;;;;2.77;1.00;;;5.40;99.90;;;;;;4972638;28;20745;-63
2024/02/23 06:18:38;;;;;;;0.80;0.80;;;5.40;99.90;;;;;;4966593;28;20199;-62
2024/02/23 06:21:12;;;;;;;0.70;0.70;;;5.50;99.90;;;;;;4972069;28;20202;-63
2024/02/23 06:23:40;;;;;;;2.13;1.17;;;5.40;99.90;;;;;;4972809;28;20257;-62
2024/02/23 06:26:06;;;;;;;1.33;0.50;;;5.40;99.90;;;;;;4972726;28;20202;-63
2024/02/23 06:28:34;;;;;;;0.67;0.60;;;5.50;99.90;;;;;;4981610;28;20637;-63
2024/02/23 06:31:01;;;;;;;0.87;0.87;;;5.50;99.90;;;;;;4980553;28;20216;-63
2024/02/23 06:33:29;;;;;;;0.90;0.40;;;5.40;99.90;;;;;;4976293;28;20208;-63
2024/02/23 06:35:56;;;;;;;0.73;0.40;;;5.40;99.90;;;;;;4972296;28;20233;-64
2024/02/23 06:38:23;;;;;;;1.73;0.70;;;5.50;99.90;;;;;;4971889;28;20202;-63
2024/02/23 06:40:50;;;;;;;4.77;2.57;;;5.50;99.90;;;;;;4973643;28;20207;-62
2024/02/23 06:43:17;;;;;;;5.10;2.77;;;5.50;99.90;;;;;;4973616;28;20214;-63
2024/02/23 06:45:44;;;;;;;4.27;3.07;;;5.40;99.90;;;;;;4973821;28;20784;-63
2024/02/23 06:48:11;;;;;;;5.00;2.63;;;5.40;99.90;;;;;;4979369;28;20228;-63
2024/02/23 06:50:39;;;;;;;6.53;2.90;;;5.50;99.90;;;;;;4976454;28;20690;-63
2024/02/23 06:53:07;;;;;;;5.43;2.27;;;5.50;99.90;;;;;;4961887;28;20286;-63
2024/02/23 06:55:35;;;;;;;1.60;1.40;;;5.50;99.90;;;;;;4969193;28;20252;-63
2024/02/23 06:58:04;;;;;;;2.07;0.90;;;5.50;99.90;;;;;;4968543;28;20207;-63
2024/02/23 07:00:31;;;;;;;2.00;0.93;;;5.60;99.90;;;;;;4973175;28;20202;-63
2024/02/23 07:02:58;;;;;;;2.07;1.57;;;5.60;99.90;;;;;;4973042;28;20205;-63
2024/02/23 07:05:25;;;;;;;5.73;1.20;;;5.70;99.90;;;;;;4972041;28;20278;-64
2024/02/23 07:07:54;;;;;;;5.43;1.00;;;5.70;99.90;;;;;;4973396;28;20206;-63
2024/02/23 07:10:22;;;;;;;1.57;1.17;;;5.70;99.90;;;;;;4969542;28;20206;-63
2024/02/23 07:12:53;;;;;;;2.17;1.37;;;5.80;99.90;;;;;;4972629;28;20199;-63
2024/02/23 07:15:20;;;;;;;2.57;1.73;;;5.80;99.90;;;;;;4971222;28;20712;-64
2024/02/23 07:17:47;;;;;;;1.27;0.77;;;5.70;99.90;;;;;;4985441;28;20623;-63
2024/02/23 07:20:14;;;;;;;2.40;0.30;;;5.80;99.90;;;;;;4973155;28;20278;-64
2024/02/23 07:22:45;;;;;;;2.90;2.07;;;5.80;99.90;;;;;;4969143;28;20430;-63
2024/02/23 07:25:17;;;;;;;2.27;0.60;;;5.80;99.90;;;;;;4971665;28;20461;-64
2024/02/23 07:27:44;;;;;;;1.23;0.30;;;5.90;99.90;;;;;;4973688;28;20206;-63
2024/02/23 07:30:12;;;;;;;1.10;0.20;;;5.90;99.90;;;;;;4972915;28;20226;-64
2024/02/23 07:32:39;;;;;;;0.30;0.20;;;5.90;99.90;;;;;;4973708;28;20206;-69
2024/02/23 07:35:06;;;;;;;1.13;0.10;;;5.90;99.90;;;;;;4973869;28;20237;-69
2024/02/23 07:37:37;;;;;;;0.30;0.30;;;5.80;99.90;;;;;;4973075;28;20294;-68
2024/02/23 07:40:05;;;;;;;0.20;0.20;;;5.90;99.90;;;;;;4973013;28;20202;-68
2024/02/23 07:42:35;;;;;;;0.20;0.20;;;5.90;99.90;;;;;;4972993;28;20239;-68
2024/02/23 07:45:04;;;;;;;0.50;0.50;;;5.80;99.90;;;;;;4970197;28;20228;-63
2024/02/23 07:47:33;;;;;;;0.40;0.30;;;5.80;99.90;;;;;;4969426;28;20337;-63
2024/02/23 07:50:01;;;;;;;0.60;0.60;;;5.80;99.90;;;;;;4954386;28;20252;-63
2024/02/23 07:52:27;;;;;;;0.60;0.30;;;5.90;99.90;;;;;;4963332;28;20857;-62
2024/02/23 07:54:54;;;;;;;0.30;0.30;;;5.90;99.90;;;;;;4952857;28;20226;-62
2024/02/23 07:57:21;;;;;;;0.40;0.40;;;6.00;99.90;;;;;;4954701;28;20207;-63
2024/02/23 07:59:50;;;;;;;0.60;0.33;;;5.90;99.90;;;;;;4972711;28;20209;-63
2024/02/23 08:02:16;;;;;;;1.97;0.50;;;6.00;99.90;;;;;;4957121;29;20744;-62
2024/02/23 08:04:44;;;;;;;0.70;0.30;;;5.90;99.90;;;;;;4957179;28;20780;-62
2024/02/23 08:07:11;;;;;;;0.73;0.40;;;5.90;99.90;;;;;;4957174;29;20267;-62
2024/02/23 08:09:38;;;;;;;0.97;0.70;;;6.00;99.90;;;;;;4962289;28;20268;-64
2024/02/23 08:12:06;;;;;;;1.90;0.50;;;5.90;99.90;;;;;;4980651;28;20212;-62
2024/02/23 08:14:33;;;;;;;0.53;0.53;;;5.70;99.90;;;;;;4973871;28;20662;-62
2024/02/23 08:17:02;;;;;;;0.30;0.30;;;5.80;99.90;;;;;;4995517;28;20679;-63
2024/02/23 08:19:29;;;;;;;1.37;0.40;;;5.80;99.90;;;;;;4995723;28;20276;-63
2024/02/23 08:21:57;;;;;;;0.37;0.27;;;5.90;99.90;;;;;;4995722;28;20318;-62
2024/02/23 08:24:26;;;;;;;2.10;0.53;;;5.80;99.90;;;;;;4994632;28;20278;-63
2024/02/23 08:26:53;;;;;;;0.97;0.30;;;5.80;99.90;;;;;;4995672;28;20212;-63
2024/02/23 08:29:20;;;;;;;0.60;0.20;;;5.80;99.90;;;;;;5001707;28;20230;-63
2024/02/23 08:31:47;;;;;;;0.30;0.30;;;5.80;99.90;;;;;;4994811;28;20245;-63
2024/02/23 08:34:17;;;;;;;1.07;0.63;;;5.90;99.90;;;;;;4994461;28;20267;-61
2024/02/23 08:36:44;;;;;;;0.67;0.50;;;5.80;99.90;;;;;;4995314;28;20205;-61
2024/02/23 08:39:11;;;;;;;0.93;0.70;;;5.90;99.90;;;;;;4995092;28;20264;-61
2024/02/23 08:41:38;;;;;;;2.40;0.60;;;5.90;99.90;;;;;;4995405;28;20211;-61
2024/02/23 08:44:05;;;;;;;2.63;0.40;;;5.90;99.90;;;;;;4994362;28;20718;-61
2024/02/23 08:46:32;;;;;;;1.90;0.70;;;6.00;99.90;;;;;;4995225;28;20673;-61
2024/02/23 08:48:59;;;;;;;0.37;0.37;;;6.00;99.90;;;;;;4994196;28;20767;-61
2024/02/23 08:51:28;;;;;;;0.97;0.80;;;6.00;99.90;;;;;;4995028;28;20211;-61
2024/02/23 08:53:56;;;;;;;2.57;1.70;;;6.00;99.90;;;;;;4994174;28;20221;-61
2024/02/23 08:56:23;;;;;;;1.90;1.00;;;6.10;99.90;;;;;;4995015;28;20209;-61
2024/02/23 08:58:50;;;;;;;0.83;0.60;;;6.20;99.90;;;;;;4995153;28;20213;-61
2024/02/23 09:01:17;;;;;;;0.43;0.43;;;6.30;99.90;;;;;;4994922;28;20203;-61
2024/02/23 09:03:43;;;;;;;1.37;0.50;;;6.30;99.90;;;;;;4994199;28;20209;-61
2024/02/23 09:06:10;;;;;;;1.73;0.20;;;6.20;99.90;;;;;;4993831;28;20279;-61
2024/02/23 09:08:39;;;;;;;0.57;0.37;;;6.30;99.90;;;;;;4994165;28;20253;-61
2024/02/23 09:11:06;;;;;;;0.20;0.17;;;6.30;99.90;;;;;;4994872;28;20212;-61
2024/02/23 09:13:33;;;;;;;0.10;0.10;;;6.30;99.90;;;;;;4994757;28;20625;-61
2024/02/23 09:16:00;;;;;;;0.20;0.20;;;6.20;99.90;;;;;;4994271;28;20644;-61
2024/02/23 09:18:27;;;;;;;0.50;0.20;;;6.20;99.90;;;;;;4994517;28;20205;-61
2024/02/23 09:20:54;;;;;;;0.20;0.20;;;6.20;99.90;;;;;;4994397;28;20205;-61
2024/02/23 09:23:21;;;;;;;0.10;0.10;;;6.20;99.90;;;;;;4991774;28;20205;-61
2024/02/23 09:25:49;;;;;;;1.60;0.40;;;6.30;99.90;;;;;;4993663;28;20710;-61
2024/02/23 09:28:16;;;;;;;1.33;0.30;;;6.30;99.90;;;;;;4992359;28;20257;-61
2024/02/23 09:30:43;;;;;;;0.30;0.30;;;6.30;99.90;;;;;;4994293;28;20237;-61
2024/02/23 09:33:10;;;;;;;2.43;0.20;;;6.40;99.90;;;;;;4994372;28;20214;-61
2024/02/23 09:35:37;;;;;;;0.30;0.30;;;6.50;99.90;;;;;;4993426;28;20660;-61
2024/02/23 09:38:04;;;;;;;2.83;0.40;;;6.50;99.90;;;;;;4994521;28;20212;-61
2024/02/23 09:40:31;;;;;;;2.20;0.20;;;6.50;99.90;;;;;;4993038;28;20203;-61
2024/02/23 09:43:00;;;;;;;0.50;0.30;;;6.50;99.90;;;;;;4994225;28;20201;-61
2024/02/23 09:45:26;;;;;;;0.80;0.30;;;6.50;99.90;;;;;;4981531;28;20218;-61
2024/02/23 09:47:55;;;;;;;1.53;0.40;;;6.60;99.90;;;;;;4955215;28;20210;-61
2024/02/23 09:50:23;;;;;;;0.47;0.40;;;6.70;99.90;;;;;;4955491;29;20231;-61
2024/02/23 09:52:51;;;;;;;1.60;0.40;;;;;;;;;;4955318;29;20207;-61
2024/02/23 09:55:19;;;;;;;0.20;0.20;;;6.70;99.90;;;;;;4963918;28;20738;-61
2024/02/23 09:57:49;;;;;;;0.77;0.30;;;6.70;99.90;;;;;;4993939;28;20193;-61
2024/02/23 10:00:19;;;;;;;0.40;0.33;;;6.70;99.90;;;;;;4993707;28;20195;-60
2024/02/23 10:02:46;;;;;;;0.50;0.50;;;6.80;99.90;;;;;;4994147;28;20625;-61
2024/02/23 10:05:14;;;;;;;0.40;0.37;;;6.80;99.90;;;;;;4993015;28;20616;-61
2024/02/23 10:07:42;;;;;;;0.50;0.47;;;6.90;99.90;;;;;;4993645;28;20271;-61
2024/02/23 10:10:10;;;;;;;1.33;0.60;;;6.90;99.90;;;;;;4993610;28;20225;-61
2024/02/23 10:12:37;;;;;;;1.73;1.40;;;6.80;99.90;;;;;;4992810;28;20209;-61
2024/02/23 10:15:05;;;;;;;1.57;1.20;;;6.90;99.90;;;;;;4992492;28;20283;-61
2024/02/23 10:17:33;;;;;;;1.83;0.67;;;7.00;99.90;;;;;;4993368;28;20704;-61
2024/02/23 10:20:04;;;;;;;0.50;0.50;;;6.90;99.90;;;;;;4993233;28;20201;-61
2024/02/23 10:22:32;;;;;;;0.50;0.40;;;6.90;99.90;;;;;;4993540;28;20201;-61
2024/02/23 10:24:59;;;;;;;3.63;0.87;;;6.90;99.90;;;;;;4992557;28;20227;-61
2024/02/23 10:27:26;;;;;;;0.80;0.40;;;6.80;99.90;;;;;;4993284;28;20204;-61
2024/02/23 10:29:53;;;;;;;0.60;0.60;;;6.80;99.90;;;;;;4977870;28;20598;-61
2024/02/23 10:32:21;;;;;;;1.63;0.20;;;6.80;99.90;;;;;;4973802;28;20236;-60
2024/02/23 10:34:51;;;;;;;0.40;0.30;;;6.80;99.90;;;;;;4972799;28;20249;-61
2024/02/23 10:37:18;;;;;;;0.30;0.30;;;6.80;99.90;;;;;;4973872;28;20245;-61
2024/02/23 10:39:48;;;;;;;0.37;0.37;;;6.80;99.90;;;;;;4979775;28;20247;-61
2024/02/23 10:42:21;;;;;;;0.33;0.33;;;6.90;99.90;;;;;;4993126;28;20211;-61
2024/02/23 10:44:48;;;;;;;0.40;0.40;;;7.00;99.90;;;;;;4992191;28;20717;-61
2024/02/23 10:47:15;;;;;;;0.70;0.70;;;7.00;99.90;;;;;;4992243;28;20276;-60
2024/02/23 10:49:45;;;;;;;0.50;0.50;;;7.00;99.90;;;;;;4992753;28;20217;-61
2024/02/23 10:52:15;;;;;;;1.43;0.50;;;7.00;99.90;;;;;;4993096;28;20218;-61
2024/02/23 10:54:42;;;;;;;1.80;0.37;;;6.80;99.90;;;;;;4991788;28;20229;-61
2024/02/23 10:57:09;;;;;;;0.60;0.60;;;6.80;99.90;;;;;;4993113;28;20206;-60
2024/02/23 10:59:36;;;;;;;0.43;0.30;;;6.80;99.90;;;;;;4992874;28;20205;-61
2024/02/23 11:02:04;;;;;;;0.57;0.40;;;6.70;99.90;;;;;;4992452;28;20212;-61
2024/02/23 11:04:33;;;;;;;0.60;0.37;;;6.80;99.90;;;;;;4992045;28;20296;-61
2024/02/23 11:07:05;;;;;;;0.20;0.20;;;6.80;99.90;;;;;;4992861;28;20287;-62
2024/02/23 11:09:33;;;;;;;1.63;0.20;;;6.80;99.90;;;;;;4997068;28;20284;-61
2024/02/23 11:12:06;;;;;;;1.30;0.30;;;6.90;99.90;;;;;;4990949;28;21032;-61
2024/02/23 11:14:33;;;;;;;1.47;0.30;;;7.00;99.90;;;;;;4991627;28;20230;-65
2024/02/23 11:17:00;;;;;;;2.47;0.63;;;7.00;99.90;;;;;;4991618;28;20256;-65
2024/02/23 11:19:35;;;;;;;5.07;1.63;;;6.90;99.90;;;;;;4992852;28;20245;-65
2024/02/23 11:22:02;;;;;;;0.63;0.63;;;6.90;99.90;;;;;;4993494;28;20204;-65
2024/02/23 11:24:30;;;;;;;0.50;0.50;;;6.80;99.90;;;;;;4992122;28;20223;-65
2024/02/23 11:27:00;;;;;;;2.13;0.60;;;6.80;99.90;;;;;;4993681;28;20896;-66
2024/02/23 11:29:28;;;;;;;1.60;0.60;;;6.90;99.90;;;;;;4990614;28;20297;-65
2024/02/23 11:32:01;;;;;;;0.63;0.50;;;6.90;99.90;;;;;;4993172;28;20725;-61
2024/02/23 11:34:29;;;;;;;1.67;0.47;;;6.90;99.90;;;;;;4992672;28;20227;-62
2024/02/23 11:36:56;;;;;;;0.50;0.50;;;6.90;99.90;;;;;;4996677;28;20201;-62
2024/02/23 11:39:23;;;;;;;1.33;0.43;;;7.00;99.90;;;;;;4995985;28;20294;-62
2024/02/23 11:41:51;;;;;;;0.30;0.30;;;7.00;99.90;;;;;;4996257;28;20213;-61
2024/02/23 11:44:19;;;;;;;0.23;0.23;;;7.00;99.90;;;;;;4995432;28;20289;-62
2024/02/23 11:46:47;;;;;;;1.07;0.80;;;6.90;99.90;;;;;;4978603;28;20205;-62
2024/02/23 11:49:15;;;;;;;0.53;0.40;;;7.00;99.90;;;;;;4977152;28;20311;-70
2024/02/23 11:51:42;;;;;;;0.40;0.40;;;7.00;99.90;;;;;;4991502;28;20273;-68
2024/02/23 11:54:10;;;;;;;3.60;0.30;;;7.00;99.90;;;;;;4995330;28;20220;-67
2024/02/23 11:56:37;;;;;;;0.50;0.47;;;7.10;99.90;;;;;;4996229;28;20209;-70
2024/02/23 11:59:04;;;;;;;0.30;0.30;;;7.10;99.90;;;;;;4997654;28;20264;-72
2024/02/23 12:01:33;;;;;;;0.80;0.37;;;7.10;99.90;;;;;;4996533;28;20244;-73
2024/02/23 12:04:00;;;;;;;0.30;0.30;;;7.20;99.90;;;;;;4995320;28;20271;-74
2024/02/23 12:06:30;;;;;;;0.77;0.40;;;7.30;99.90;;;;;;4995826;28;20200;-75
2024/02/23 12:08:58;;;;;;;0.43;0.33;;;7.10;99.90;;;;;;4996145;28;20212;-73
2024/02/23 12:11:25;;;;;;;2.77;0.50;;;7.10;99.90;;;;;;4991765;28;20225;-73
2024/02/23 12:13:52;;;;;;;0.83;0.30;;;7.10;99.90;;;;;;4992088;28;20209;-66
2024/02/23 12:16:19;;;;;;;0.50;0.40;;;7.00;99.90;;;;;;4988938;28;20198;-69
2024/02/23 12:18:54;;;;;;;0.40;0.40;;;7.00;99.90;;;;;;4978105;28;20288;-63
2024/02/23 12:21:21;;;;;;;4.00;0.30;;;7.00;99.90;;;;;;4976192;28;20268;-69
2024/02/23 12:23:50;;;;;;;1.20;0.30;;;7.00;99.90;;;;;;4975388;28;20206;-64
2024/02/23 12:26:18;;;;;;;0.20;0.20;;;6.90;99.90;;;;;;4975626;28;20240;-65
2024/02/23 12:28:47;;;;;;;0.30;0.30;;;6.80;99.90;;;;;;4970242;28;20199;-63
2024/02/23 12:31:14;;;;;;;0.30;0.30;;;6.90;99.90;;;;;;4966270;28;20226;-62
2024/02/23 12:33:41;;;;;;;2.10;0.40;;;6.90;99.90;;;;;;4970650;28;20600;-63
2024/02/23 12:36:11;;;;;;;0.30;0.10;;;7.00;99.90;;;;;;4975656;28;20609;-63
2024/02/23 12:38:39;;;;;;;0.20;0.20;;;6.90;99.90;;;;;;4975959;28;20206;-62
2024/02/23 12:41:06;;;;;;;0.20;0.20;;;7.00;99.90;;;;;;4982559;28;20679;-62
2024/02/23 12:43:33;;;;;;;1.43;0.20;;;6.90;99.90;;;;;;4974180;28;20259;-62
2024/02/23 12:46:01;;;;;;;0.57;0.57;;;7.00;99.90;;;;;;4968625;28;20770;-63
2024/02/23 12:48:28;;;;;;;1.23;0.30;;;7.00;99.90;;;;;;4971795;28;20206;-62
2024/02/23 12:50:55;;;;;;;0.43;0.20;;;7.10;99.90;;;;;;4973909;28;20702;-62
2024/02/23 12:53:34;;;;;;;0.13;0.10;;;7.10;99.90;;;;;;4972937;28;20210;-63
2024/02/23 12:56:03;;;;;;;0.33;0.30;;;7.10;99.90;;;;;;4975410;28;20606;-63
2024/02/23 12:58:30;;;;;;;0.20;0.20;;;7.40;99.90;;;;;;4975454;28;20209;-62
2024/02/23 13:00:58;;;;;;;0.30;0.20;;;7.30;99.90;;;;;;4980369;28;20206;-62
2024/02/23 13:03:26;;;;;;;4.33;0.17;;;7.20;99.90;;;;;;4981567;28;20202;-63
2024/02/23 13:05:54;;;;;;;0.60;0.20;;;7.30;99.90;;;;;;4975927;28;20838;-63
2024/02/23 13:08:21;;;;;;;0.13;0.10;;;7.40;99.90;;;;;;4975225;28;20205;-64